Air Navigation Services of Czech Republic
Airport: LKCV Updated:  22.04.2021 16:57:25  UTC
 METAR LKCV 22.04. 17:00 ...
METAR LKCV 221700Z 32013KT CAVOK 08/M03 Q1020 NOSIG RMK BLU BLU=
 TAF LKCV 22.04. 11:00 ...
TAF LKCV 221100Z 2212/2312 30012KT CAVOK      TEMPO 2212/2217 30016G26KT      BECMG 2306/2308 BKN035      TEMPO 2310/2312 30016G26KT=